createdAt,value
2019-05-18T00:00:50.934Z,99.99
2019-05-18T00:05:50.812Z,99.99
2019-05-18T00:10:50.770Z,99.99
2019-05-18T00:15:50.642Z,99.99
2019-05-18T00:20:50.649Z,99.99
2019-05-18T00:25:50.621Z,99.99
2019-05-18T00:30:50.623Z,99.99
2019-05-18T00:35:59.877Z,99.99
2019-05-18T00:40:50.300Z,99.99
2019-05-18T00:45:50.266Z,99.99
2019-05-18T00:50:50.208Z,99.99
2019-05-18T00:55:50.216Z,99.99
2019-05-18T01:00:50.094Z,99.99
2019-05-18T01:05:50.035Z,99.99
2019-05-18T01:10:49.989Z,99.99
2019-05-18T01:15:49.906Z,99.99
2019-05-18T01:20:49.868Z,99.99
2019-05-18T01:25:49.837Z,99.99
2019-05-18T01:30:49.774Z,99.99
2019-05-18T01:35:49.909Z,99.99
2019-05-18T01:40:49.816Z,99.99
2019-05-18T01:45:51.570Z,99.99
2019-05-18T01:50:49.689Z,99.99
2019-05-18T01:55:49.642Z,99.99
2019-05-18T02:00:49.553Z,99.99
2019-05-18T02:05:49.481Z,99.99
2019-05-18T02:10:49.533Z,99.99
2019-05-18T02:15:49.392Z,99.99
2019-05-18T02:20:49.357Z,99.99
2019-05-18T02:25:49.309Z,99.99
2019-05-18T02:30:49.208Z,99.99
2019-05-18T02:35:49.166Z,99.99
2019-05-18T02:40:49.110Z,99.99
2019-05-18T02:45:49.076Z,99.99
2019-05-18T02:50:49.006Z,99.99
2019-05-18T02:55:49.005Z,99.99
2019-05-18T03:00:48.944Z,99.99
2019-05-18T03:05:48.876Z,99.99
2019-05-18T03:10:48.808Z,99.99
2019-05-18T03:15:48.733Z,99.99
2019-05-18T03:20:48.770Z,99.99
2019-05-18T03:25:48.777Z,99.99
2019-05-18T03:30:48.656Z,99.99
2019-05-18T03:35:48.621Z,99.99
2019-05-18T03:40:48.485Z,99.99
2019-05-18T03:45:48.426Z,99.99
2019-05-18T03:50:48.332Z,99.99
2019-05-18T03:55:48.289Z,99.99
2019-05-18T04:00:48.242Z,99.99
2019-05-18T04:05:48.166Z,99.99
2019-05-18T04:10:48.094Z,99.99
2019-05-18T04:15:48.034Z,99.99
2019-05-18T04:20:48.006Z,99.99
2019-05-18T04:25:47.956Z,99.99
2019-05-18T04:30:47.879Z,99.99
2019-05-18T04:35:47.944Z,99.99
2019-05-18T04:40:47.917Z,99.99
2019-05-18T04:45:47.711Z,99.99
2019-05-18T04:50:47.763Z,99.99
2019-05-18T04:55:47.705Z,99.99
2019-05-18T05:00:47.635Z,99.99
2019-05-18T05:05:47.563Z,99.99
2019-05-18T05:10:47.477Z,99.99
2019-05-18T05:15:47.427Z,99.99
2019-05-18T05:20:47.346Z,99.99
2019-05-18T05:25:47.282Z,99.99
2019-05-18T05:30:47.231Z,99.99
2019-05-18T05:35:47.179Z,99.99
2019-05-18T05:40:47.105Z,99.99
2019-05-18T05:45:47.070Z,99.99
2019-05-18T05:50:47.020Z,99.99
2019-05-18T05:55:47.036Z,99.99
2019-05-18T06:00:46.980Z,99.99
2019-05-18T06:05:46.988Z,99.99
2019-05-18T06:10:47.982Z,99.99
2019-05-18T06:15:46.801Z,99.99
2019-05-18T06:20:51.575Z,99.99
2019-05-18T06:25:47.677Z,99.99
2019-05-18T06:30:46.776Z,99.99
2019-05-18T06:35:46.673Z,99.99
2019-05-18T06:40:46.546Z,99.99
2019-05-18T06:45:55.888Z,99.99
2019-05-18T06:50:46.426Z,99.99
2019-05-18T06:55:46.291Z,99.99
2019-05-18T07:00:46.234Z,99.99
2019-05-18T07:05:46.207Z,99.99
2019-05-18T07:10:46.140Z,99.99
2019-05-18T07:15:46.114Z,99.99
2019-05-18T07:20:46.433Z,99.99
2019-05-18T07:25:46.031Z,99.99
2019-05-18T07:30:45.967Z,99.82
2019-05-18T07:35:46.264Z,99.67
2019-05-18T07:40:46.932Z,98.97
2019-05-18T07:45:45.910Z,97.80
2019-05-18T07:50:45.804Z,97.31
2019-05-18T07:55:45.819Z,94.84
2019-05-18T08:00:45.871Z,90.11
2019-05-18T08:05:45.632Z,89.28
2019-05-18T08:10:45.581Z,86.58
2019-05-18T08:15:45.527Z,83.28
2019-05-18T08:20:45.529Z,81.21
2019-05-18T08:25:45.728Z,79.43
2019-05-18T08:30:45.417Z,76.41
2019-05-18T08:35:45.336Z,75.31
2019-05-18T08:40:45.301Z,73.13
2019-05-18T08:45:45.262Z,73.47
2019-05-18T08:50:45.222Z,74.57
2019-05-18T08:55:45.155Z,77.23
2019-05-18T09:00:45.134Z,78.47
2019-05-18T09:05:45.054Z,79.28
2019-05-18T09:10:45.001Z,79.21
2019-05-18T09:15:44.944Z,76.31
2019-05-18T09:20:44.950Z,74.20
2019-05-18T09:25:44.872Z,72.00
2019-05-18T09:30:44.801Z,71.63
2019-05-18T09:35:44.793Z,71.59
2019-05-18T09:40:44.753Z,71.86
2019-05-18T09:45:44.681Z,70.53
2019-05-18T09:50:44.669Z,71.33
2019-05-18T09:55:44.616Z,67.73
2019-05-18T10:00:44.536Z,66.93
2019-05-18T10:05:44.561Z,67.10
2019-05-18T10:10:44.498Z,67.72
2019-05-18T10:15:44.516Z,67.69
2019-05-18T10:20:44.399Z,68.23
2019-05-18T10:25:44.339Z,69.59
2019-05-18T10:30:44.294Z,68.13
2019-05-18T10:35:44.270Z,65.66
2019-05-18T10:40:44.182Z,66.09
2019-05-18T10:45:45.193Z,64.60
2019-05-18T10:50:44.236Z,64.71
2019-05-18T10:55:44.056Z,65.50
2019-05-18T11:00:44.089Z,67.55
2019-05-18T11:05:44.020Z,65.93
2019-05-18T11:10:43.926Z,61.13
2019-05-18T11:15:43.898Z,66.77
2019-05-18T11:20:43.913Z,59.44
2019-05-18T11:25:43.849Z,61.10
2019-05-18T11:30:43.732Z,60.47
2019-05-18T11:35:43.712Z,55.83
2019-05-18T11:40:43.699Z,60.86
2019-05-18T11:45:43.610Z,64.67
2019-05-18T11:50:43.573Z,56.52
2019-05-18T11:55:43.539Z,59.27
2019-05-18T12:00:43.513Z,57.38
2019-05-18T12:05:43.549Z,53.90
2019-05-18T12:10:43.473Z,55.91
2019-05-18T12:15:43.353Z,60.19
2019-05-18T12:20:43.315Z,59.94
2019-05-18T12:25:43.286Z,59.86
2019-05-18T12:30:43.249Z,59.48
2019-05-18T12:35:43.177Z,61.92
2019-05-18T12:40:43.297Z,59.47
2019-05-18T12:45:43.090Z,58.31
2019-05-18T12:50:43.066Z,57.30
2019-05-18T12:55:51.945Z,54.13
2019-05-18T13:00:42.939Z,56.68
2019-05-18T13:05:42.927Z,62.98
2019-05-18T13:10:42.858Z,65.22
2019-05-18T13:15:42.852Z,65.91
2019-05-18T13:20:42.883Z,65.74
2019-05-18T13:25:42.748Z,67.28
2019-05-18T13:30:42.650Z,65.48
2019-05-18T13:35:45.504Z,67.69
2019-05-18T13:40:42.646Z,67.05
2019-05-18T13:45:42.518Z,69.66
2019-05-18T13:50:44.742Z,67.72
2019-05-18T13:55:42.491Z,63.78
2019-05-18T14:00:42.364Z,69.86
2019-05-18T14:05:42.331Z,69.99
2019-05-18T14:10:42.267Z,64.87
2019-05-18T14:15:42.206Z,61.00
2019-05-18T14:20:42.390Z,59.58
2019-05-18T14:25:42.145Z,58.73
2019-05-18T14:30:44.394Z,57.26
2019-05-18T14:35:48.751Z,58.51
2019-05-18T14:40:42.036Z,61.16
2019-05-18T14:45:42.095Z,61.22
2019-05-18T14:50:42.033Z,60.89
2019-05-18T14:55:41.850Z,63.48
2019-05-18T15:00:41.901Z,62.13
2019-05-18T15:05:41.826Z,62.02
2019-05-18T15:10:41.755Z,60.08
2019-05-18T15:15:41.663Z,60.21
2019-05-18T15:20:41.679Z,61.46
2019-05-18T15:25:50.145Z,62.41
2019-05-18T15:30:42.577Z,63.04
2019-05-18T15:35:41.514Z,63.14
2019-05-18T15:40:41.550Z,63.27
2019-05-18T15:45:41.481Z,61.47
2019-05-18T15:50:41.406Z,62.90
2019-05-18T15:55:41.361Z,60.44
2019-05-18T16:00:41.323Z,62.37
2019-05-18T16:05:43.196Z,63.23
2019-05-18T16:10:44.527Z,63.33
2019-05-18T16:15:41.116Z,63.43
2019-05-18T16:20:41.026Z,63.83
2019-05-18T16:25:40.990Z,62.53
2019-05-18T16:30:40.967Z,63.03
2019-05-18T16:35:40.988Z,63.76
2019-05-18T16:40:40.820Z,63.39
2019-05-18T16:45:40.804Z,64.22
2019-05-18T16:50:40.743Z,63.56
2019-05-18T16:55:40.639Z,65.31
2019-05-18T17:00:40.815Z,66.45
2019-05-18T17:05:40.623Z,71.50
2019-05-18T17:10:40.609Z,75.70
2019-05-18T17:15:40.513Z,76.24
2019-05-18T17:20:40.583Z,75.54
2019-05-18T17:25:40.385Z,77.95
2019-05-18T17:30:42.623Z,78.36
2019-05-18T17:35:40.241Z,79.57
2019-05-18T17:40:40.203Z,81.12
2019-05-18T17:45:40.163Z,81.32
2019-05-18T17:50:40.121Z,81.32
2019-05-18T17:55:40.062Z,81.12
2019-05-18T18:00:40.002Z,81.73
2019-05-18T18:05:39.941Z,81.26
2019-05-18T18:10:39.892Z,80.96
2019-05-18T18:15:39.916Z,80.65
2019-05-18T18:20:39.888Z,82.17
2019-05-18T18:25:40.224Z,84.61
2019-05-18T18:30:41.685Z,85.05
2019-05-18T18:35:39.832Z,84.75
2019-05-18T18:40:39.619Z,83.70
2019-05-18T18:45:39.621Z,83.46
2019-05-18T18:50:39.501Z,83.05
2019-05-18T18:55:41.509Z,83.76
2019-05-18T19:00:39.427Z,85.25
2019-05-18T19:05:39.355Z,88.92
2019-05-18T19:10:39.240Z,88.62
2019-05-18T19:15:39.166Z,88.62
2019-05-18T19:20:39.126Z,89.02
2019-05-18T19:25:39.066Z,90.18
2019-05-18T19:30:48.241Z,90.58
2019-05-18T19:35:38.948Z,90.83
2019-05-18T19:40:38.918Z,92.25
2019-05-18T19:45:38.847Z,92.55
2019-05-18T19:50:38.807Z,92.65
2019-05-18T19:55:38.729Z,92.96
2019-05-18T20:00:38.723Z,92.45
2019-05-18T20:05:38.800Z,92.25
2019-05-18T20:10:38.645Z,91.03
2019-05-18T20:15:38.527Z,92.25
2019-05-18T20:20:38.471Z,92.49
2019-05-18T20:25:38.446Z,93.10
2019-05-18T20:30:38.357Z,94.46
2019-05-18T20:35:38.324Z,93.96
2019-05-18T20:40:38.257Z,93.65
2019-05-18T20:45:38.203Z,93.35
2019-05-18T20:50:38.145Z,93.35
2019-05-18T20:55:38.109Z,94.17
2019-05-18T21:00:38.832Z,95.48
2019-05-18T21:05:38.061Z,95.48
2019-05-18T21:10:38.017Z,95.18
2019-05-18T21:15:37.890Z,94.87
2019-05-18T21:20:37.832Z,95.18
2019-05-18T21:25:37.763Z,95.18
2019-05-18T21:30:37.728Z,95.48
2019-05-18T21:35:37.673Z,95.79
2019-05-18T21:40:37.620Z,95.79
2019-05-18T21:45:37.554Z,95.48
2019-05-18T21:50:37.501Z,95.07
2019-05-18T21:55:37.462Z,95.99
2019-05-18T22:00:37.655Z,95.68
2019-05-18T22:05:37.350Z,95.18
2019-05-18T22:10:37.279Z,95.68
2019-05-18T22:15:37.228Z,95.89
2019-05-18T22:20:43.130Z,96.60
2019-05-18T22:25:38.151Z,97.00
2019-05-18T22:30:37.086Z,97.35
2019-05-18T22:35:37.019Z,97.25
2019-05-18T22:40:36.948Z,97.45
2019-05-18T22:45:36.935Z,97.25
2019-05-18T22:50:36.857Z,96.75
2019-05-18T22:55:36.808Z,96.64
2019-05-18T23:00:36.727Z,97.56
2019-05-18T23:05:36.697Z,97.80
2019-05-18T23:10:36.623Z,97.60
2019-05-18T23:15:36.561Z,97.50
2019-05-18T23:20:36.505Z,97.85
2019-05-18T23:25:36.499Z,98.36
2019-05-18T23:30:36.397Z,98.46
2019-05-18T23:35:36.365Z,98.26
2019-05-18T23:40:36.297Z,97.96
2019-05-18T23:45:36.269Z,98.26
2019-05-18T23:50:36.201Z,98.16
2019-05-18T23:55:36.138Z,98.86
